Time;durP1;ratioP1;P1;durP2;ratioP2;P2;SDS_P1;SDS_P2;PMS_P1;PMS_P2;Temp;Humidity;BMP_temperature;BMP_pressure;BME280_temperature;BME280_humidity;BME280_pressure;Samples;Min_cycle;Max_cycle;Signal;HPM_P1;HPM_P2
2023/11/09 00:00:16;;;;;;;23.25;16.02;;;;;;;6.57;100.00;99930.96;1748316;82;21139;-63
2023/11/09 00:02:45;;;;;;;27.02;16.10;;;;;;;6.55;100.00;99939.83;1748190;82;21763;-63
2023/11/09 00:05:15;;;;;;;22.13;15.60;;;;;;;6.58;100.00;99935.89;1748107;81;21143;-65
2023/11/09 00:07:44;;;;;;;21.00;14.45;;;;;;;6.58;100.00;99931.81;1748348;81;21084;-63
2023/11/09 00:10:14;;;;;;;25.12;16.23;;;;;;;6.56;100.00;99932.51;1748183;82;21552;-63
2023/11/09 00:12:50;;;;;;;20.57;14.75;;;;;;;6.54;100.00;99937.29;1748196;82;21131;-65
2023/11/09 00:15:15;;;;;;;23.32;15.60;;;;;;;6.52;100.00;99930.67;1729107;82;21132;-63
2023/11/09 00:17:44;;;;;;;23.55;15.83;;;;;;;6.51;100.00;99933.06;1748180;81;21095;-64
2023/11/09 00:20:17;;;;;;;22.90;15.68;;;;;;;6.50;100.00;99933.20;1748214;82;21115;-63
2023/11/09 00:22:46;;;;;;;21.87;16.10;;;;;;;6.54;100.00;99939.49;1748236;82;21091;-64
2023/11/09 00:25:17;;;;;;;22.25;15.83;;;;;;;6.58;100.00;99946.27;1748381;82;21123;-66
2023/11/09 00:27:47;;;;;;;24.72;15.95;;;;;;;6.58;100.00;99939.46;1748220;82;21147;-65
2023/11/09 00:30:17;;;;;;;21.62;15.05;;;;;;;6.57;100.00;99941.85;1748425;82;21120;-63
2023/11/09 00:32:46;;;;;;;21.05;15.18;;;;;;;6.56;100.00;99941.52;1748235;81;21597;-63
2023/11/09 00:35:19;;;;;;;24.02;15.75;;;;;;;6.56;100.00;99939.31;1748348;82;21171;-64
2023/11/09 00:37:50;;;;;;;23.10;14.95;;;;;;;6.54;100.00;99942.73;1748157;82;21586;-64
2023/11/09 00:40:19;;;;;;;25.75;16.90;;;;;;;6.55;100.00;99941.19;1748385;82;21131;-64
2023/11/09 00:42:48;;;;;;;22.27;14.75;;;;;;;6.55;100.00;99944.42;1748441;82;21144;-63
2023/11/09 00:45:18;;;;;;;24.95;15.95;;;;;;;6.55;100.00;99945.27;1748147;81;21551;-64
2023/11/09 00:47:48;;;;;;;25.75;16.05;;;;;;;6.53;100.00;99948.69;1748367;81;21136;-64
2023/11/09 00:50:17;;;;;;;25.17;15.20;;;;;;;6.50;100.00;99952.26;1748177;82;21095;-62
2023/11/09 00:52:46;;;;;;;26.90;17.00;;;;;;;6.52;100.00;99955.16;1748291;82;21546;-64
2023/11/09 00:55:15;;;;;;;26.48;16.45;;;;;;;6.54;100.00;99949.53;1748342;82;21151;-64
2023/11/09 00:57:46;;;;;;;26.90;16.85;;;;;;;6.54;100.00;99950.90;1748197;81;21143;-65
2023/11/09 01:00:16;;;;;;;29.50;16.97;;;;;;;6.54;100.00;99953.10;1748159;82;21143;-64
2023/11/09 01:02:48;;;;;;;26.35;15.83;;;;;;;6.55;100.00;99952.08;1748211;82;21120;-65
2023/11/09 01:05:16;;;;;;;27.75;15.85;;;;;;;6.53;100.00;99952.77;1748336;82;21143;-63
2023/11/09 01:07:46;;;;;;;24.32;15.70;;;;;;;6.51;100.00;99956.19;1748212;82;21147;-64
2023/11/09 01:10:17;;;;;;;26.12;14.83;;;;;;;6.51;100.00;99958.91;1748210;82;21568;-65
2023/11/09 01:12:48;;;;;;;24.85;15.15;;;;;;;6.49;100.00;99960.94;1748418;82;21116;-64
2023/11/09 01:15:17;;;;;;;25.95;14.30;;;;;;;6.51;100.00;99955.34;1748131;81;21555;-64
2023/11/09 01:18:04;;;;;;;21.95;14.43;;;;;;;6.53;100.00;99956.85;1748293;82;21080;-63
2023/11/09 01:20:35;;;;;;;22.32;14.10;;;;;;;6.54;100.00;99946.81;1748253;82;21147;-62
2023/11/09 01:23:06;;;;;;;23.22;13.68;;;;;;;6.52;100.00;99954.31;1748439;82;21147;-62
2023/11/09 01:25:35;;;;;;;23.45;13.62;;;;;;;6.53;100.00;99956.01;1748241;81;21127;-62
2023/11/09 01:28:04;;;;;;;22.40;14.18;;;;;;;6.51;100.00;99948.02;1748237;82;21104;-63
2023/11/09 01:30:33;;;;;;;22.73;13.20;;;;;;;6.52;100.00;99944.79;1748567;82;21088;-62
2023/11/09 01:33:04;;;;;;;24.65;13.45;;;;;;;6.52;100.00;99953.80;1748223;82;21551;-63
2023/11/09 01:35:33;;;;;;;23.60;13.50;;;;;;;6.52;100.00;99957.88;1748407;82;21171;-63
2023/11/09 01:38:02;;;;;;;22.42;13.28;;;;;;;6.51;100.00;99959.42;1748414;82;21095;-63
2023/11/09 01:40:34;;;;;;;23.27;12.75;;;;;;;6.54;100.00;99956.34;1748259;82;21151;-63
2023/11/09 01:43:03;;;;;;;26.40;14.03;;;;;;;6.57;100.00;99953.25;1748256;82;21112;-62
2023/11/09 01:45:32;;;;;;;21.42;13.00;;;;;;;6.59;100.00;99961.56;1729735;82;21653;-63
2023/11/09 01:48:01;;;;;;;22.10;13.25;;;;;;;6.58;100.00;99957.16;1748443;82;21111;-63
2023/11/09 01:50:31;;;;;;;24.72;13.28;;;;;;;6.58;100.00;99963.11;1748314;82;21151;-63
2023/11/09 01:53:00;;;;;;;24.80;13.75;;;;;;;6.56;100.00;99961.09;1748390;81;21155;-64
2023/11/09 01:55:29;;;;;;;21.42;11.95;;;;;;;6.54;100.00;99958.55;1748202;82;21625;-63
2023/11/09 01:57:58;;;;;;;21.30;12.23;;;;;;;6.57;100.00;99956.82;1748236;81;21186;-64
2023/11/09 02:00:27;;;;;;;23.73;13.13;;;;;;;6.56;100.00;99970.61;1748243;82;21143;-63
2023/11/09 02:02:56;;;;;;;21.80;12.95;;;;;;;6.59;100.00;99963.44;1748361;82;21198;-62
2023/11/09 02:05:25;;;;;;;22.30;13.13;;;;;;;6.63;100.00;99960.17;1748177;82;21136;-65
2023/11/09 02:07:54;;;;;;;25.37;13.58;;;;;;;6.67;100.00;99961.50;1748665;81;21142;-63
2023/11/09 02:10:23;;;;;;;23.92;12.63;;;;;;;6.70;100.00;99959.44;1748510;81;21555;-63
2023/11/09 02:12:52;;;;;;;26.60;13.28;;;;;;;6.73;100.00;99964.00;1748282;81;21119;-63
2023/11/09 02:15:22;;;;;;;20.55;12.63;;;;;;;6.75;100.00;99967.39;1748244;82;21609;-62
2023/11/09 02:17:53;;;;;;;21.77;12.60;;;;;;;6.76;100.00;99962.78;1748521;82;21111;-62
2023/11/09 02:20:22;;;;;;;23.52;13.43;;;;;;;6.77;100.00;99967.20;1748454;82;21095;-62
2023/11/09 02:22:53;;;;;;;21.73;12.75;;;;;;;6.77;100.00;99968.56;1748303;82;21151;-63
2023/11/09 02:25:22;;;;;;;25.70;13.15;;;;;;;6.81;100.00;99978.05;1748449;82;21567;-63
2023/11/09 02:27:51;;;;;;;20.82;12.37;;;;;;;6.82;100.00;99975.66;1748245;82;21103;-63
2023/11/09 02:30:20;;;;;;;20.68;12.78;;;;;;;6.83;100.00;99975.99;1748410;81;21174;-63
2023/11/09 02:32:49;;;;;;;23.00;12.73;;;;;;;6.80;100.00;99971.77;1748430;82;21131;-64
2023/11/09 02:35:19;;;;;;;25.57;13.60;;;;;;;6.81;100.00;99973.97;1748164;82;21574;-64
2023/11/09 02:37:49;;;;;;;23.92;12.90;;;;;;;6.83;100.00;99978.20;1748265;82;21135;-64
2023/11/09 02:40:19;;;;;;;22.42;13.62;;;;;;;6.84;100.00;99974.45;1748446;81;21135;-62
2023/11/09 02:42:48;;;;;;;23.75;13.95;;;;;;;6.88;100.00;99971.69;1748377;81;21201;-64
2023/11/09 02:45:17;;;;;;;23.70;12.80;;;;;;;6.95;100.00;99978.61;1748262;82;21620;-64
2023/11/09 02:47:46;;;;;;;21.07;12.20;;;;;;;6.96;100.00;99981.66;1748253;81;21163;-64
2023/11/09 02:50:15;;;;;;;21.73;13.93;;;;;;;6.98;100.00;99986.41;1748422;82;21107;-63
2023/11/09 02:52:45;;;;;;;23.05;13.98;;;;;;;6.98;100.00;99994.06;1748217;82;21562;-62
2023/11/09 02:55:18;;;;;;;22.20;13.58;;;;;;;7.02;100.00;100002.71;1748238;82;21563;-67
2023/11/09 02:57:47;;;;;;;23.60;13.95;;;;;;;7.04;100.00;99994.35;1748442;82;21151;-63
2023/11/09 03:00:17;;;;;;;23.18;13.90;;;;;;;7.04;100.00;100004.73;1748255;81;21147;-63
2023/11/09 03:02:46;;;;;;;23.70;13.72;;;;;;;7.09;100.00;100001.45;1748256;82;21199;-63
2023/11/09 03:05:21;;;;;;;23.57;13.50;;;;;;;7.11;100.00;100002.96;1748152;82;21547;-63
2023/11/09 03:07:46;;;;;;;24.70;14.15;;;;;;;7.13;100.00;100006.34;1748093;81;21155;-64
2023/11/09 03:10:20;;;;;;;25.75;15.38;;;;;;;7.15;100.00;100006.16;1748575;81;21096;-64
2023/11/09 03:12:47;;;;;;;24.65;13.95;;;;;;;7.14;100.00;100006.67;1747959;81;21167;-63
2023/11/09 03:15:19;;;;;;;23.98;14.53;;;;;;;7.13;100.00;100008.23;1748089;82;21163;-63
2023/11/09 03:17:47;;;;;;;25.30;14.05;;;;;;;7.11;100.00;100013.86;1729595;82;21108;-63
2023/11/09 03:20:16;;;;;;;24.98;14.55;;;;;;;7.13;100.00;100011.80;1748254;81;21194;-61
2023/11/09 03:22:45;;;;;;;25.72;13.98;;;;;;;7.13;100.00;100007.71;1748246;81;21170;-64
2023/11/09 03:25:14;;;;;;;24.35;14.60;;;;;;;7.17;100.00;100006.34;1748219;81;21112;-63
2023/11/09 03:27:43;;;;;;;24.87;13.98;;;;;;;7.18;100.00;100010.76;1748369;82;21591;-62
2023/11/09 03:30:12;;;;;;;24.90;14.50;;;;;;;7.19;100.00;100013.81;1748181;82;21155;-63
2023/11/09 03:32:41;;;;;;;24.25;13.70;;;;;;;7.21;100.00;100021.80;1748506;82;21131;-64
2023/11/09 03:35:12;;;;;;;22.98;13.10;;;;;;;7.23;100.00;100023.83;1748408;82;21143;-63
2023/11/09 03:37:46;;;;;;;26.50;13.98;;;;;;;7.23;100.00;100026.03;1748215;82;21099;-64
2023/11/09 03:40:12;;;;;;;22.65;13.58;;;;;;;7.25;100.00;100024.48;1729152;82;21151;-64
2023/11/09 03:42:41;;;;;;;24.43;13.65;;;;;;;7.25;100.00;100019.87;1747997;82;21108;-63
2023/11/09 03:45:10;;;;;;;23.90;14.83;;;;;;;7.25;100.00;100023.97;1748088;81;21123;-63
2023/11/09 03:47:40;;;;;;;26.30;14.00;;;;;;;7.26;100.00;100025.66;1748139;81;21622;-62
2023/11/09 03:50:12;;;;;;;22.75;12.90;;;;;;;7.28;100.00;100031.77;1748215;81;21119;-62
2023/11/09 03:52:42;;;;;;;20.95;13.43;;;;;;;7.30;100.00;100031.59;1748552;81;21076;-63
2023/11/09 03:55:11;;;;;;;25.35;15.25;;;;;;;7.31;100.00;100025.11;1748422;82;21131;-63
2023/11/09 03:57:40;;;;;;;26.02;13.90;;;;;;;7.35;100.00;100034.59;1748023;82;21119;-64
2023/11/09 04:00:11;;;;;;;28.73;14.87;;;;;;;7.37;100.00;100037.14;1748316;82;21143;-64
2023/11/09 04:02:42;;;;;;;27.93;15.03;;;;;;;7.38;100.00;100036.11;1748012;81;21528;-63
2023/11/09 04:05:13;;;;;;;26.68;15.00;;;;;;;7.38;100.00;100034.75;1742267;82;21563;-68
2023/11/09 04:07:43;;;;;;;28.42;14.95;;;;;;;7.36;100.00;100044.47;1742296;82;21552;-63
2023/11/09 04:10:13;;;;;;;27.13;13.93;;;;;;;7.35;100.00;100039.20;1742372;82;22089;-62
2023/11/09 04:12:45;;;;;;;24.12;14.28;;;;;;;7.38;100.00;100044.28;1742345;82;21139;-64
2023/11/09 04:15:14;;;;;;;22.58;13.88;;;;;;;7.39;100.00;100044.61;1742367;82;21130;-65
2023/11/09 04:17:44;;;;;;;25.08;14.30;;;;;;;7.40;100.00;100053.13;1742448;82;21604;-61
2023/11/09 04:20:13;;;;;;;25.15;14.05;;;;;;;7.39;100.00;100048.70;1742583;81;21123;-64
2023/11/09 04:22:42;;;;;;;21.02;13.13;;;;;;;7.39;100.00;100038.65;1742873;82;21136;-63
2023/11/09 04:25:11;;;;;;;21.02;13.13;;;;;;;7.39;100.00;100043.25;1732171;82;21099;-63
2023/11/09 04:27:39;;;;;;;24.20;13.30;;;;;;;7.38;100.00;100045.13;1742354;82;21088;-63
2023/11/09 04:30:15;;;;;;;26.75;13.15;;;;;;;7.39;100.00;100050.06;1742738;82;21551;-63
2023/11/09 04:32:40;;;;;;;21.85;12.78;;;;;;;7.41;100.00;100057.54;1742170;81;21571;-63
2023/11/09 04:35:09;;;;;;;24.55;14.23;;;;;;;7.40;100.00;100060.78;1742546;82;21168;-64
2023/11/09 04:37:38;;;;;;;20.68;13.05;;;;;;;7.39;100.00;100066.42;1756691;81;21589;-64
2023/11/09 04:40:15;;;;;;;21.15;12.58;;;;;;;7.39;100.00;100059.09;1742536;82;21104;-63
2023/11/09 04:42:46;;;;;;;22.07;12.75;;;;;;;7.41;100.00;100058.39;1742379;82;21139;-63
2023/11/09 04:45:17;;;;;;;19.27;12.07;;;;;;;7.43;100.00;100062.29;1742301;82;21151;-63
2023/11/09 04:47:47;;;;;;;20.75;11.97;;;;;;;7.46;100.00;100064.64;1742392;81;21167;-64
2023/11/09 04:50:27;;;;;;;18.27;12.23;;;;;;;7.47;100.00;100067.70;1742363;82;21175;-64
2023/11/09 04:52:57;;;;;;;18.50;11.73;;;;;;;7.46;100.00;100075.55;1742187;81;21144;-61
2023/11/09 04:55:31;;;;;;;20.68;12.37;;;;;;;7.46;100.00;100081.00;1742033;81;21175;-63
2023/11/09 05:09:05;;;;;;;26.93;13.10;;;;;;;7.42;100.00;100092.78;1742747;82;21056;-64
2023/11/09 05:11:34;;;;;;;22.75;13.25;;;;;;;7.42;100.00;100094.16;1742317;82;21068;-63
2023/11/09 05:14:03;;;;;;;21.15;12.65;;;;;;;7.38;100.00;100097.43;1742369;82;21052;-63
2023/11/09 05:16:32;;;;;;;22.77;13.68;;;;;;;7.37;100.00;100101.19;1742509;82;21060;-62
2023/11/09 05:19:02;;;;;;;19.52;11.85;;;;;;;7.33;100.00;100110.25;1742547;82;21024;-64
2023/11/09 05:21:31;;;;;;;24.80;13.45;;;;;;;7.31;100.00;100111.80;1742497;82;21004;-65
2023/11/09 05:24:00;;;;;;;23.40;12.93;;;;;;;7.30;100.00;100112.83;1742310;82;21003;-61
2023/11/09 05:26:32;;;;;;;21.97;14.30;;;;;;;7.31;100.00;100119.13;1742324;82;21075;-63
2023/11/09 05:29:02;;;;;;;24.77;13.95;;;;;;;7.31;100.00;100118.61;1742553;82;21040;-63
2023/11/09 05:31:35;;;;;;;23.02;13.70;;;;;;;7.33;100.00;100122.51;1742297;82;21060;-64
2023/11/09 05:34:05;;;;;;;23.38;14.15;;;;;;;7.36;100.00;100121.30;1742598;81;21040;-63
2023/11/09 05:36:34;;;;;;;22.75;13.78;;;;;;;7.36;100.00;100126.23;1742317;82;21016;-63
2023/11/09 05:39:04;;;;;;;24.50;13.72;;;;;;;7.34;100.00;100126.09;1742525;82;21036;-63
2023/11/09 05:41:33;;;;;;;20.62;12.63;;;;;;;7.34;100.00;100126.93;1742463;82;21013;-64
2023/11/09 05:44:05;;;;;;;21.60;14.35;;;;;;;7.32;100.00;100134.44;1742309;82;21052;-62
2023/11/09 05:46:34;;;;;;;22.35;13.45;;;;;;;7.33;100.00;100125.23;1742521;82;21044;-64
2023/11/09 05:49:04;;;;;;;24.00;14.30;;;;;;;7.34;100.00;100135.63;1742513;82;21088;-63
2023/11/09 05:51:33;;;;;;;24.40;13.93;;;;;;;7.36;100.00;100131.68;1742230;81;21488;-62
2023/11/09 05:54:04;;;;;;;24.40;13.60;;;;;;;7.36;100.00;100133.05;1742453;82;21021;-64
2023/11/09 05:56:33;;;;;;;22.40;13.32;;;;;;;7.39;100.00;100146.82;1742274;82;21012;-63
2023/11/09 05:59:03;;;;;;;25.52;14.68;;;;;;;7.41;100.00;100146.13;1742284;82;21468;-64
2023/11/09 06:01:35;;;;;;;23.67;13.70;;;;;;;7.44;100.00;100148.48;1742418;82;21530;-63
2023/11/09 06:04:03;;;;;;;27.27;14.25;;;;;;;7.46;100.00;100142.33;1744237;81;21068;-63
2023/11/09 06:06:32;;;;;;;33.05;19.82;;;;;;;7.50;100.00;100142.30;1748408;81;21044;-64
2023/11/09 06:09:05;;;;;;;22.80;13.48;;;;;;;7.53;100.00;100150.10;1748214;81;21005;-64
2023/11/09 06:11:34;;;;;;;22.40;12.28;;;;;;;7.56;100.00;100146.49;1748179;82;21079;-65
2023/11/09 06:14:03;;;;;;;18.85;12.35;;;;;;;7.60;100.00;100156.52;1748395;82;21400;-64
2023/11/09 06:16:34;;;;;;;20.57;12.47;;;;;;;7.62;100.00;100148.48;1748411;82;21587;-63
2023/11/09 06:19:04;;;;;;;21.05;12.05;;;;;;;7.64;100.00;100156.47;1748207;82;21028;-63
2023/11/09 06:21:33;;;;;;;20.90;12.93;;;;;;;7.66;100.00;100148.95;1747990;81;21119;-65
2023/11/09 06:24:02;;;;;;;22.15;12.30;;;;;;;7.66;100.00;100156.29;1748199;82;21040;-64
2023/11/09 06:26:31;;;;;;;19.55;11.43;;;;;;;7.71;100.00;100171.58;1748352;81;21042;-64
2023/11/09 06:29:00;;;;;;;17.50;11.12;;;;;;;7.75;100.00;100175.63;1748066;82;21023;-64
2023/11/09 06:31:28;;;;;;;16.55;11.40;;;;;;;7.78;100.00;100169.29;1747977;82;21020;-64
2023/11/09 06:33:59;;;;;;;18.65;11.10;;;;;;;7.79;100.00;100175.59;1748447;81;21044;-64
2023/11/09 06:36:29;;;;;;;22.25;11.40;;;;;;;7.78;100.00;100174.75;1748169;82;21039;-63
2023/11/09 06:38:57;;;;;;;18.65;10.90;;;;;;;7.81;100.00;100177.66;1747952;81;21040;-63
2023/11/09 06:41:28;;;;;;;17.15;10.58;;;;;;;7.85;100.00;100174.37;1748027;82;21064;-63
2023/11/09 06:43:57;;;;;;;20.05;10.40;;;;;;;7.91;100.00;100177.71;1748088;81;21127;-63
2023/11/09 06:46:27;;;;;;;17.32;10.38;;;;;;;7.97;100.00;100176.64;1748352;82;21035;-65
2023/11/09 06:48:57;;;;;;;19.98;10.63;;;;;;;7.99;100.00;100178.15;1748292;82;21534;-65
2023/11/09 06:51:26;;;;;;;19.67;10.85;;;;;;;8.06;100.00;100189.16;1748095;82;21466;-64
2023/11/09 06:53:55;;;;;;;15.93;9.95;;;;;;;8.14;100.00;100191.80;1748132;82;21074;-63
2023/11/09 06:56:24;;;;;;;16.90;9.90;;;;;;;8.20;100.00;100197.88;1748057;82;21044;-64
2023/11/09 06:58:53;;;;;;;15.93;9.80;;;;;;;8.24;100.00;100195.95;1748416;81;21023;-64
2023/11/09 07:01:24;;;;;;;18.42;9.63;;;;;;;8.24;100.00;100197.31;1748080;82;21055;-62
2023/11/09 07:03:55;;;;;;;16.45;9.65;;;;;;;8.28;100.00;100195.05;1748232;82;21059;-64
2023/11/09 07:06:24;;;;;;;14.45;9.30;;;;;;;8.28;100.00;100200.52;1748348;81;21028;-64
2023/11/09 07:08:54;;;;;;;14.87;9.23;;;;;;;8.31;100.00;100204.75;1748355;82;21008;-64
2023/11/09 07:11:23;;;;;;;11.88;8.05;;;;;;;8.34;100.00;100206.62;1748116;82;21468;-64
2023/11/09 07:13:52;;;;;;;15.65;8.68;;;;;;;8.34;99.91;100210.72;1748148;82;21440;-65
2023/11/09 07:16:23;;;;;;;14.33;8.13;;;;;;;8.32;99.36;100208.66;1748340;82;21047;-64
2023/11/09 07:18:52;;;;;;;12.07;7.45;;;;;;;8.34;99.38;100206.62;1748309;82;21053;-64
2023/11/09 07:21:22;;;;;;;11.50;7.17;;;;;;;8.38;98.78;100206.57;1748249;82;21008;-64
2023/11/09 07:23:59;;;;;;;13.35;7.70;;;;;;;8.38;97.91;100216.64;1748348;82;21012;-64
2023/11/09 07:26:21;;;;;;;10.05;7.25;;;;;;;8.34;97.65;100217.53;1747709;82;21024;-65
2023/11/09 07:28:51;;;;;;;14.53;8.00;;;;;;;8.35;97.57;100219.23;1748206;81;20984;-65
2023/11/09 07:31:20;;;;;;;14.60;8.55;;;;;;;8.37;97.64;100221.77;1748359;82;21004;-63
2023/11/09 07:33:50;;;;;;;12.30;8.40;;;;;;;8.40;97.40;100222.24;1748392;81;21040;-64
2023/11/09 07:36:19;;;;;;;13.00;8.33;;;;;;;8.39;97.37;100223.28;1748195;82;20997;-63
2023/11/09 07:38:48;;;;;;;14.90;8.58;;;;;;;8.39;97.47;100221.06;1748482;82;21067;-63
2023/11/09 07:41:17;;;;;;;19.35;11.40;;;;;;;8.39;97.47;100228.73;1748384;82;21501;-63
2023/11/09 07:43:46;;;;;;;17.12;9.38;;;;;;;8.39;97.51;100226.53;1748229;81;21546;-64
2023/11/09 07:46:15;;;;;;;16.42;9.15;;;;;;;8.37;97.67;100229.44;1748205;82;21040;-63
2023/11/09 07:48:43;;;;;;;14.23;8.80;;;;;;;8.41;97.96;100228.03;1748176;82;20984;-65
2023/11/09 07:51:13;;;;;;;14.28;8.90;;;;;;;8.40;97.35;100222.24;1748129;82;21001;-69
2023/11/09 07:53:42;;;;;;;16.50;8.95;;;;;;;8.39;97.44;100223.80;1748296;81;21024;-64
2023/11/09 07:56:12;;;;;;;14.30;8.43;;;;;;;8.39;97.42;100230.63;1748195;82;21016;-62
2023/11/09 07:58:40;;;;;;;15.80;8.70;;;;;;;8.43;97.74;100236.89;1748531;81;21006;-64
2023/11/09 08:01:10;;;;;;;17.52;9.15;;;;;;;8.48;97.75;100240.45;1748352;82;21059;-65
2023/11/09 08:03:39;;;;;;;11.95;8.18;;;;;;;8.50;97.54;100242.47;1728438;82;21490;-62
2023/11/09 08:06:08;;;;;;;12.05;8.20;;;;;;;8.53;97.67;100237.48;1740397;82;21079;-64
2023/11/09 08:08:37;;;;;;;14.87;9.45;;;;;;;8.59;97.90;100245.44;1740120;82;21036;-64
2023/11/09 08:11:06;;;;;;;16.70;9.15;;;;;;;8.67;98.11;100237.14;1740301;82;21036;-64
2023/11/09 08:13:39;;;;;;;17.57;9.30;;;;;;;8.76;97.90;100247.45;1740124;82;21008;-65
2023/11/09 08:16:14;;;;;;;11.90;7.80;;;;;;;8.80;97.38;100246.88;1730351;82;21017;-65
2023/11/09 08:18:43;;;;;;;15.23;8.58;;;;;;;8.84;97.20;100253.66;1740369;82;21414;-62
2023/11/09 08:21:13;;;;;;;14.68;8.38;;;;;;;8.89;97.07;100245.73;1740177;82;21028;-63
2023/11/09 08:23:42;;;;;;;13.90;8.58;;;;;;;8.93;96.88;100248.94;1740187;82;21008;-64
2023/11/09 08:26:11;;;;;;;13.65;8.40;;;;;;;8.96;96.51;100244.45;1740028;82;21068;-65
2023/11/09 08:28:40;;;;;;;14.78;8.85;;;;;;;9.03;96.47;100245.91;1739916;82;21091;-64
2023/11/09 08:31:09;;;;;;;14.80;8.73;;;;;;;9.07;95.98;100252.68;1740042;82;21036;-62
2023/11/09 08:33:39;;;;;;;13.70;8.15;;;;;;;9.12;95.82;100249.73;1740186;82;21017;-65
2023/11/09 08:36:10;;;;;;;12.43;8.03;;;;;;;9.17;95.59;100260.09;1739995;82;21052;-65
2023/11/09 08:38:39;;;;;;;12.35;7.97;;;;;;;9.25;95.41;100257.23;1740009;81;21028;-64
2023/11/09 08:41:09;;;;;;;15.23;7.47;;;;;;;9.31;95.32;100263.83;1740299;81;21072;-65
2023/11/09 08:43:39;;;;;;;14.13;8.08;;;;;;;9.35;94.75;100266.50;1740112;82;21036;-65
2023/11/09 08:46:08;;;;;;;13.00;8.25;;;;;;;9.36;94.59;100277.24;1740171;82;21447;-64
2023/11/09 08:48:40;;;;;;;9.53;6.40;;;;;;;9.38;94.17;100271.58;1740017;82;21495;-64
2023/11/09 08:51:13;;;;;;;13.85;7.25;;;;;;;9.37;92.67;100273.98;1740054;81;21061;-65
2023/11/09 08:53:40;;;;;;;11.08;6.78;;;;;;;9.29;91.89;100271.37;1753572;81;21100;-64
2023/11/09 08:56:10;;;;;;;18.27;7.87;;;;;;;9.29;91.64;100274.95;1739703;82;21060;-63
2023/11/09 08:58:40;;;;;;;17.52;6.97;;;;;;;9.30;91.46;100273.06;1739926;82;21416;-65
2023/11/09 09:01:17;;;;;;;13.08;7.45;;;;;;;9.34;91.52;100277.11;1757478;81;21043;-64
2023/11/09 09:03:41;;;;;;;12.53;7.25;;;;;;;9.38;91.95;100287.47;1769747;81;21447;-65
2023/11/09 09:06:15;;;;;;;12.45;7.17;;;;;;;9.44;91.45;100285.84;1741152;81;21487;-65
2023/11/09 09:08:47;;;;;;;10.80;6.83;;;;;;;9.45;90.95;100295.22;1739769;82;21533;-64
2023/11/09 09:11:18;;;;;;;11.45;7.35;;;;;;;9.44;90.36;100292.69;1739767;82;21033;-64
2023/11/09 09:13:47;;;;;;;11.93;7.10;;;;;;;9.47;90.58;100292.30;1739771;82;21467;-65
2023/11/09 09:16:17;;;;;;;13.08;7.33;;;;;;;9.49;90.74;100291.58;1739753;82;21512;-65
2023/11/09 09:18:47;;;;;;;9.95;6.53;;;;;;;9.53;91.03;100298.36;1718498;82;21824;-64
2023/11/09 09:21:18;;;;;;;13.13;7.10;;;;;;;9.56;90.99;100293.02;1739666;82;21041;-64
2023/11/09 09:23:50;;;;;;;14.05;6.80;;;;;;;9.58;90.70;100297.27;1739712;82;21470;-64
2023/11/09 09:26:18;;;;;;;15.78;6.78;;;;;;;9.58;90.63;100292.31;1739645;82;21419;-64
2023/11/09 09:28:48;;;;;;;12.90;6.58;;;;;;;9.61;90.98;100296.88;1739921;82;21024;-63
2023/11/09 09:31:18;;;;;;;10.32;6.67;;;;;;;9.63;90.62;100295.31;1739661;81;21028;-63
2023/11/09 09:34:12;;;;;;;8.65;5.72;;;;;;;9.65;90.71;100293.23;1740037;82;21103;-65
2023/11/09 09:36:38;;;;;;;10.80;6.37;;;;;;;9.61;89.08;100297.39;1739703;82;21020;-65
2023/11/09 09:39:08;;;;;;;9.95;6.17;;;;;;;9.50;88.13;100291.91;1739713;82;21456;-64
2023/11/09 09:41:49;;;;;;;10.20;6.62;;;;;;;9.41;88.45;100295.80;1739650;82;21069;-65
2023/11/09 09:44:14;;;;;;;10.95;6.08;;;;;;;9.36;88.37;100292.80;1719459;82;21064;-64
2023/11/09 09:46:44;;;;;;;9.85;6.33;;;;;;;9.31;88.74;100296.63;1739850;82;21037;-66
2023/11/09 09:49:18;;;;;;;9.90;6.30;;;;;;;9.32;89.25;100296.44;1740234;82;21006;-65
2023/11/09 09:51:49;;;;;;;9.73;6.12;;;;;;;9.39;89.46;100296.52;1739932;82;21070;-64
2023/11/09 09:54:18;;;;;;;9.73;6.03;;;;;;;9.42;89.33;100297.50;1719418;82;21077;-65
2023/11/09 09:56:47;;;;;;;12.28;6.28;;;;;;;9.47;89.19;100300.50;1740160;82;21009;-64
2023/11/09 09:59:18;;;;;;;9.55;6.50;;;;;;;9.52;88.52;100302.14;1739839;82;21085;-63
2023/11/09 10:01:50;;;;;;;10.38;7.50;;;;;;;9.51;87.97;100297.19;1739975;82;21475;-65
2023/11/09 10:04:20;;;;;;;10.88;5.83;;;;;;;9.51;87.92;100300.44;1739541;82;21103;-64
2023/11/09 10:06:49;;;;;;;12.40;6.40;;;;;;;9.54;88.00;100298.69;1730483;82;21474;-64
2023/11/09 10:09:24;;;;;;;11.25;6.10;;;;;;;9.58;88.32;100306.84;1730243;83;21468;-64
2023/11/09 10:11:50;;;;;;;11.25;7.15;;;;;;;9.63;87.97;100302.15;1730080;82;21459;-65
2023/11/09 10:14:23;;;;;;;11.30;7.12;;;;;;;9.66;86.98;100299.88;1711677;83;21036;-66
2023/11/09 10:16:50;;;;;;;12.03;7.62;;;;;;;9.68;86.85;100302.41;1730080;83;21298;-65
2023/11/09 10:19:20;;;;;;;11.85;6.97;;;;;;;9.71;87.13;100309.71;1711674;83;21084;-64
2023/11/09 10:21:51;;;;;;;9.83;6.95;;;;;;;9.77;86.31;100304.02;1730332;83;21012;-64
2023/11/09 10:24:23;;;;;;;9.98;6.87;;;;;;;9.81;86.06;100303.43;1711821;83;21558;-64
2023/11/09 10:26:52;;;;;;;10.40;6.45;;;;;;;9.88;85.66;100304.86;1730151;83;21052;-63
2023/11/09 10:29:21;;;;;;;9.38;6.47;;;;;;;9.95;85.56;100309.88;1730067;83;21444;-65
2023/11/09 10:31:51;;;;;;;9.53;6.83;;;;;;;9.98;84.52;100306.75;1737243;82;21056;-64
2023/11/09 10:34:25;;;;;;;13.45;6.95;;;;;;;9.99;83.51;100300.23;1737680;82;21048;-62
2023/11/09 10:36:57;;;;;;;11.57;6.70;;;;;;;9.96;83.56;100312.94;1737750;82;21441;-60
2023/11/09 10:39:26;;;;;;;11.38;6.42;;;;;;;9.96;83.56;100310.20;1729650;82;21025;-62
2023/11/09 10:41:57;;;;;;;10.13;6.87;;;;;;;9.96;82.17;100314.31;1737901;82;21056;-65
2023/11/09 10:44:28;;;;;;;10.55;7.00;;;;;;;9.95;81.91;100321.34;1737818;82;21088;-66
2023/11/09 10:46:57;;;;;;;14.10;7.37;;;;;;;9.92;81.84;100317.63;1737847;82;21048;-64
2023/11/09 10:49:30;;;;;;;10.35;6.87;;;;;;;9.93;82.70;100317.44;1737228;81;21029;-65
2023/11/09 10:51:59;;;;;;;11.25;7.30;;;;;;;9.97;82.67;100319.26;1737803;82;21079;-64
2023/11/09 10:54:29;;;;;;;12.88;7.67;;;;;;;10.01;82.76;100327.41;1737837;82;21104;-67
2023/11/09 10:57:00;;;;;;;12.20;7.70;;;;;;;10.03;82.75;100327.53;1737644;82;21642;-64
2023/11/09 10:59:29;;;;;;;10.58;6.97;;;;;;;10.08;82.98;100329.69;1737908;82;21417;-65
2023/11/09 11:02:08;;;;;;;7.87;6.25;;;;;;;10.11;82.61;100331.51;1738005;82;21428;-65
2023/11/09 11:04:36;;;;;;;11.73;7.03;;;;;;;10.14;82.74;100341.22;1737632;82;21004;-66
2023/11/09 11:07:06;;;;;;;10.72;6.72;;;;;;;10.15;81.49;100342.91;1739563;82;21499;-65
2023/11/09 11:09:37;;;;;;;12.07;7.17;;;;;;;10.07;80.31;100339.79;1739912;82;21020;-64
2023/11/09 11:12:10;;;;;;;11.10;6.87;;;;;;;10.01;81.00;100346.56;1729604;82;21554;-66
2023/11/09 11:14:43;;;;;;;11.88;7.55;;;;;;;9.96;80.92;100343.05;1739724;82;21414;-65
2023/11/09 11:17:32;;;;;;;9.30;6.47;;;;;;;9.97;81.18;100348.00;1740036;82;21430;-65
2023/11/09 11:20:25;;;;;;;19.25;6.92;;;;;;;9.99;81.33;100354.12;1739959;81;21060;-64
2023/11/09 11:23:12;;;;;;;11.60;6.45;;;;;;;9.99;81.47;100356.34;1740053;82;21076;-65
2023/11/09 11:25:58;;;;;;;10.03;6.10;;;;;;;10.02;81.47;100351.00;1739956;82;21016;-66
2023/11/09 11:28:27;;;;;;;11.80;6.25;;;;;;;10.04;80.63;100348.91;1739790;82;21092;-65
2023/11/09 11:31:04;;;;;;;10.50;5.62;;;;;;;10.03;80.35;100354.06;1728204;82;21072;-64
2023/11/09 11:33:37;;;;;;;8.93;5.62;;;;;;;10.00;79.30;100364.03;1739766;82;21084;-64
2023/11/09 11:36:07;;;;;;;10.50;6.00;;;;;;;9.97;78.63;100363.05;1739942;82;21108;-65
2023/11/09 11:38:40;;;;;;;7.80;5.05;;;;;;;9.93;78.86;100363.12;1739702;82;21051;-67
2023/11/09 11:41:22;;;;;;;9.43;5.90;;;;;;;9.91;78.75;100369.30;1740137;82;21068;-65